createdAt,value
2017-06-27T00:01:13.782Z,46.90
2017-06-27T00:03:40.202Z,46.50
2017-06-27T00:06:06.602Z,47.00
2017-06-27T00:08:32.977Z,47.00
2017-06-27T00:10:59.398Z,46.50
2017-06-27T00:13:25.812Z,47.40
2017-06-27T00:15:52.188Z,47.00
2017-06-27T00:18:19.435Z,47.40
2017-06-27T00:20:45.832Z,47.30
2017-06-27T00:23:13.009Z,47.10
2017-06-27T00:25:39.402Z,47.00
2017-06-27T00:28:05.847Z,47.10
2017-06-27T00:30:32.233Z,46.80
2017-06-27T00:32:58.885Z,47.30
2017-06-27T00:35:25.274Z,47.00
2017-06-27T00:37:51.657Z,47.00
2017-06-27T00:40:18.138Z,48.10
2017-06-27T00:42:44.549Z,48.60
2017-06-27T00:45:11.013Z,47.60
2017-06-27T00:47:37.858Z,48.10
2017-06-27T00:50:04.255Z,48.40
2017-06-27T00:52:30.657Z,48.30
2017-06-27T00:54:57.074Z,48.10
2017-06-27T00:57:23.516Z,48.20
2017-06-27T00:59:49.880Z,48.70
2017-06-27T01:02:16.390Z,48.70
2017-06-27T01:04:42.782Z,48.50
2017-06-27T01:07:09.235Z,48.10
2017-06-27T01:09:35.618Z,48.60
2017-06-27T01:12:02.177Z,48.20
2017-06-27T01:14:28.575Z,49.30
2017-06-27T01:16:54.993Z,49.80
2017-06-27T01:19:22.061Z,49.30
2017-06-27T01:21:48.429Z,49.40
2017-06-27T01:24:14.838Z,50.10
2017-06-27T01:26:41.362Z,49.40
2017-06-27T01:29:07.793Z,48.90
2017-06-27T01:31:34.188Z,48.80
2017-06-27T01:34:00.650Z,48.70
2017-06-27T01:36:27.445Z,49.00
2017-06-27T01:38:54.158Z,48.40
2017-06-27T01:41:20.546Z,48.30
2017-06-27T01:43:47.040Z,48.60
2017-06-27T01:46:13.455Z,48.50
2017-06-27T01:48:39.870Z,49.10
2017-06-27T01:51:06.306Z,49.80
2017-06-27T01:53:32.713Z,50.20
2017-06-27T01:55:59.147Z,50.50
2017-06-27T01:58:25.533Z,50.10
2017-06-27T02:00:52.269Z,52.10
2017-06-27T02:03:18.755Z,51.40
2017-06-27T02:05:45.917Z,50.50
2017-06-27T02:08:12.342Z,50.40
2017-06-27T02:10:38.850Z,51.00
2017-06-27T02:13:05.253Z,50.50
2017-06-27T02:15:31.649Z,50.50
2017-06-27T02:17:58.921Z,51.90
2017-06-27T02:20:25.296Z,51.10
2017-06-27T02:22:51.763Z,51.40
2017-06-27T02:25:18.205Z,52.10
2017-06-27T02:27:44.726Z,51.50
2017-06-27T02:30:11.161Z,51.80
2017-06-27T02:32:37.549Z,51.90
2017-06-27T02:35:04.014Z,51.20
2017-06-27T02:37:30.452Z,51.30
2017-06-27T02:39:56.880Z,52.10
2017-06-27T02:42:23.702Z,53.00
2017-06-27T02:44:50.090Z,52.90
2017-06-27T02:47:16.511Z,51.70
2017-06-27T02:49:42.912Z,52.80
2017-06-27T02:52:09.350Z,52.20
2017-06-27T02:54:36.439Z,52.40
2017-06-27T02:57:02.805Z,52.30
2017-06-27T02:59:29.207Z,52.30
2017-06-27T03:01:56.536Z,52.30
2017-06-27T03:04:22.949Z,52.50
2017-06-27T03:06:49.313Z,52.60
2017-06-27T03:09:18.191Z,53.20
2017-06-27T03:11:44.613Z,52.80
2017-06-27T03:14:11.006Z,53.40
2017-06-27T03:16:37.413Z,53.40
2017-06-27T03:19:04.677Z,55.00
2017-06-27T03:21:31.146Z,54.40
2017-06-27T03:23:57.545Z,53.90
2017-06-27T03:26:23.927Z,53.60
2017-06-27T03:28:52.437Z,53.10
2017-06-27T03:31:18.829Z,53.60
2017-06-27T03:33:45.338Z,52.70
2017-06-27T03:36:11.745Z,53.90
2017-06-27T03:38:38.166Z,54.00
2017-06-27T03:41:04.549Z,55.90
2017-06-27T03:43:31.649Z,53.90
2017-06-27T03:45:58.017Z,53.80
2017-06-27T03:48:24.425Z,54.00
2017-06-27T03:50:50.835Z,54.00
2017-06-27T03:53:17.287Z,54.40
2017-06-27T03:55:43.955Z,54.30
2017-06-27T03:58:10.361Z,55.00
2017-06-27T04:00:36.746Z,55.00
2017-06-27T04:03:03.122Z,54.80
2017-06-27T04:05:29.569Z,54.50
2017-06-27T04:07:57.285Z,55.50
2017-06-27T04:10:23.645Z,55.10
2017-06-27T04:12:50.006Z,54.70
2017-06-27T04:15:16.415Z,55.50
2017-06-27T04:17:42.801Z,55.60
2017-06-27T04:20:09.272Z,55.00
2017-06-27T04:22:35.654Z,54.70
2017-06-27T04:25:02.250Z,54.90
2017-06-27T04:27:28.701Z,55.30
2017-06-27T04:29:55.158Z,54.90
2017-06-27T04:32:21.549Z,54.80
2017-06-27T04:34:47.938Z,55.00
2017-06-27T04:37:21.266Z,55.10
2017-06-27T04:39:47.653Z,55.10
2017-06-27T04:42:14.070Z,54.90
2017-06-27T04:44:40.490Z,54.70
2017-06-27T04:47:06.906Z,54.80
2017-06-27T04:49:33.328Z,55.40
2017-06-27T04:51:59.798Z,55.50
2017-06-27T04:54:26.148Z,56.10
2017-06-27T04:56:52.534Z,54.80
2017-06-27T04:59:25.906Z,54.70
2017-06-27T05:01:52.630Z,54.90
2017-06-27T05:04:19.052Z,54.80
2017-06-27T05:06:45.429Z,55.00
2017-06-27T05:09:12.533Z,55.70
2017-06-27T05:11:38.902Z,55.60
2017-06-27T05:14:05.257Z,55.60
2017-06-27T05:16:31.630Z,55.80
2017-06-27T05:18:58.021Z,56.00
2017-06-27T05:21:24.387Z,56.10
2017-06-27T05:23:50.794Z,56.30
2017-06-27T05:26:18.201Z,57.40
2017-06-27T05:28:44.577Z,57.10
2017-06-27T05:31:10.974Z,56.10
2017-06-27T05:33:37.331Z,56.00
2017-06-27T05:36:04.918Z,55.10
2017-06-27T05:38:32.352Z,55.10
2017-06-27T05:41:05.946Z,56.70
2017-06-27T05:43:32.353Z,56.00
2017-06-27T05:45:58.779Z,55.40
2017-06-27T05:48:26.805Z,55.70
2017-06-27T05:50:53.202Z,56.60
2017-06-27T05:53:19.578Z,55.90
2017-06-27T05:55:47.146Z,55.40
2017-06-27T05:58:13.565Z,56.50
2017-06-27T06:00:39.970Z,55.60
2017-06-27T06:03:06.338Z,55.60
2017-06-27T06:05:32.735Z,54.80
2017-06-27T06:07:59.112Z,55.10
2017-06-27T06:10:25.521Z,55.90
2017-06-27T06:12:51.985Z,55.70
2017-06-27T06:15:18.356Z,54.90
2017-06-27T06:17:44.773Z,54.80
2017-06-27T06:20:11.129Z,54.80
2017-06-27T06:22:37.474Z,53.80
2017-06-27T06:25:03.869Z,53.50
2017-06-27T06:27:30.241Z,53.70
2017-06-27T06:29:56.654Z,53.90
2017-06-27T06:32:23.063Z,53.90
2017-06-27T06:34:49.461Z,54.20
2017-06-27T06:37:16.677Z,53.20
2017-06-27T06:39:43.147Z,53.10
2017-06-27T06:42:09.511Z,53.10
2017-06-27T06:44:36.345Z,53.90
2017-06-27T06:47:02.804Z,54.00
2017-06-27T06:49:29.182Z,55.40
2017-06-27T06:51:55.545Z,54.00
2017-06-27T06:54:21.926Z,53.50
2017-06-27T06:56:48.299Z,53.20
2017-06-27T06:59:14.681Z,53.20
2017-06-27T07:01:41.081Z,52.90
2017-06-27T07:04:07.501Z,52.10
2017-06-27T07:06:33.901Z,53.00
2017-06-27T07:09:00.257Z,52.90
2017-06-27T07:11:26.696Z,53.40
2017-06-27T07:13:53.077Z,53.40
2017-06-27T07:16:19.510Z,51.40
2017-06-27T07:18:46.058Z,50.50
2017-06-27T07:21:12.787Z,49.80
2017-06-27T07:23:39.165Z,50.10
2017-06-27T07:26:06.625Z,50.10
2017-06-27T07:28:33.139Z,51.00
2017-06-27T07:30:59.483Z,51.10
2017-06-27T07:33:26.206Z,50.80
2017-06-27T07:35:52.610Z,51.00
2017-06-27T07:38:18.995Z,50.60
2017-06-27T07:40:45.381Z,49.90
2017-06-27T07:43:11.766Z,49.20
2017-06-27T07:45:38.117Z,50.70
2017-06-27T07:48:04.466Z,51.00
2017-06-27T07:50:30.832Z,52.10
2017-06-27T07:52:57.211Z,52.20
2017-06-27T07:55:23.587Z,51.80
2017-06-27T07:57:49.934Z,52.20
2017-06-27T08:00:16.394Z,52.60
2017-06-27T08:02:42.922Z,51.10
2017-06-27T08:05:09.331Z,49.90
2017-06-27T08:07:35.701Z,50.00
2017-06-27T08:10:02.264Z,50.50
2017-06-27T08:12:28.676Z,50.70
2017-06-27T08:14:56.087Z,51.30
2017-06-27T08:17:22.496Z,48.90
2017-06-27T08:19:48.878Z,49.80
2017-06-27T08:22:15.405Z,50.60
2017-06-27T08:24:43.922Z,49.90
2017-06-27T08:27:10.308Z,50.60
2017-06-27T08:29:36.662Z,49.60
2017-06-27T08:32:03.050Z,51.10
2017-06-27T08:34:29.415Z,50.20
2017-06-27T08:36:55.769Z,49.90
2017-06-27T08:39:22.137Z,49.50
2017-06-27T08:41:48.544Z,48.90
2017-06-27T08:44:14.970Z,48.20
2017-06-27T08:46:41.343Z,49.40
2017-06-27T08:49:07.687Z,48.80
2017-06-27T08:51:34.026Z,47.80
2017-06-27T08:54:00.377Z,48.60
2017-06-27T08:56:26.780Z,48.40
2017-06-27T08:58:53.146Z,49.30
2017-06-27T09:01:19.530Z,48.40
2017-06-27T09:03:45.960Z,48.60
2017-06-27T09:06:12.314Z,47.40
2017-06-27T09:08:38.681Z,48.20
2017-06-27T09:11:05.822Z,49.00
2017-06-27T09:13:32.246Z,48.20
2017-06-27T09:15:58.608Z,51.00
2017-06-27T09:18:24.993Z,49.10
2017-06-27T09:20:51.394Z,48.80
2017-06-27T09:23:17.773Z,47.70
2017-06-27T09:25:44.139Z,47.80
2017-06-27T09:28:10.567Z,46.70
2017-06-27T09:30:36.960Z,48.60
2017-06-27T09:33:03.510Z,47.30
2017-06-27T09:35:29.901Z,46.30
2017-06-27T09:37:56.318Z,47.60
2017-06-27T09:40:22.693Z,49.30
2017-06-27T09:42:49.099Z,48.10
2017-06-27T09:45:15.531Z,47.30
2017-06-27T09:47:41.907Z,48.10
2017-06-27T09:50:08.285Z,47.70
2017-06-27T09:52:35.396Z,47.70
2017-06-27T09:55:01.805Z,47.70
2017-06-27T09:57:28.285Z,48.00
2017-06-27T09:59:54.657Z,47.20
2017-06-27T10:02:21.041Z,46.60
2017-06-27T10:04:47.421Z,48.20
2017-06-27T10:07:13.775Z,47.50
2017-06-27T10:09:40.149Z,48.70
2017-06-27T10:12:06.538Z,48.60
2017-06-27T10:14:32.917Z,49.30
2017-06-27T10:16:59.299Z,48.10
2017-06-27T10:19:25.679Z,47.40
2017-06-27T10:21:52.145Z,48.90
2017-06-27T10:24:18.542Z,48.40
2017-06-27T10:26:44.904Z,49.50
2017-06-27T10:29:11.285Z,46.30
2017-06-27T10:31:42.929Z,45.20
2017-06-27T10:34:09.354Z,47.20
2017-06-27T10:36:35.726Z,46.20
2017-06-27T10:39:02.893Z,47.60
2017-06-27T10:41:29.261Z,46.80
2017-06-27T10:43:55.767Z,47.50
2017-06-27T10:46:22.211Z,48.60
2017-06-27T10:48:49.377Z,47.00
2017-06-27T10:51:15.794Z,47.00
2017-06-27T10:53:42.217Z,46.00
2017-06-27T10:56:08.663Z,45.80
2017-06-27T10:58:35.133Z,47.10
2017-06-27T11:01:01.491Z,48.50
2017-06-27T11:03:27.982Z,47.40
2017-06-27T11:05:54.317Z,47.10
2017-06-27T11:08:20.655Z,47.50
2017-06-27T11:10:47.031Z,47.70
2017-06-27T11:13:13.402Z,47.70
2017-06-27T11:15:40.531Z,46.10
2017-06-27T11:18:06.874Z,44.80
2017-06-27T11:20:33.250Z,45.90
2017-06-27T11:22:59.773Z,45.00
2017-06-27T11:25:26.145Z,45.60
2017-06-27T11:27:52.508Z,46.50
2017-06-27T11:30:18.880Z,48.20
2017-06-27T11:32:45.262Z,47.20
2017-06-27T11:35:12.402Z,48.60
2017-06-27T11:37:38.748Z,48.40
2017-06-27T11:40:05.130Z,48.20
2017-06-27T11:42:32.213Z,47.20
2017-06-27T11:44:58.608Z,47.10
2017-06-27T11:47:31.039Z,48.10
2017-06-27T11:49:57.480Z,47.90
2017-06-27T11:52:24.674Z,49.40
2017-06-27T11:54:51.122Z,49.10
2017-06-27T11:57:17.531Z,48.40
2017-06-27T11:59:43.994Z,47.70
2017-06-27T12:02:10.454Z,47.50
2017-06-27T12:04:40.781Z,47.40
2017-06-27T12:07:19.997Z,48.70
2017-06-27T12:09:46.386Z,49.40
2017-06-27T12:12:12.837Z,49.30
2017-06-27T12:14:41.433Z,49.20
2017-06-27T12:17:07.820Z,49.40
2017-06-27T12:19:34.224Z,48.90
2017-06-27T12:22:00.639Z,47.20
2017-06-27T12:24:27.107Z,47.50
2017-06-27T12:26:53.537Z,48.40
2017-06-27T12:29:19.897Z,48.10
2017-06-27T12:31:47.013Z,47.40
2017-06-27T12:34:16.606Z,47.40
2017-06-27T12:36:43.007Z,47.20
2017-06-27T12:39:09.383Z,47.90
2017-06-27T12:41:35.733Z,47.90
2017-06-27T12:44:02.245Z,49.90
2017-06-27T12:46:28.617Z,48.80
2017-06-27T12:48:55.019Z,49.20
2017-06-27T12:51:22.142Z,48.40
2017-06-27T12:53:48.517Z,48.30
2017-06-27T12:56:14.886Z,48.20
2017-06-27T12:58:41.241Z,48.10
2017-06-27T13:01:07.637Z,51.10
2017-06-27T13:03:34.006Z,48.10
2017-06-27T13:06:00.388Z,51.00
2017-06-27T13:08:26.768Z,48.40
2017-06-27T13:10:53.145Z,47.70
2017-06-27T13:13:19.518Z,49.60
2017-06-27T13:15:47.751Z,50.00
2017-06-27T13:18:14.897Z,48.30
2017-06-27T13:20:41.321Z,48.30
2017-06-27T13:23:07.729Z,48.00
2017-06-27T13:25:34.905Z,46.80
2017-06-27T13:28:01.273Z,48.90
2017-06-27T13:30:28.411Z,48.90
2017-06-27T13:32:54.815Z,48.90
2017-06-27T13:35:21.221Z,49.30
2017-06-27T13:37:47.619Z,49.90
2017-06-27T13:40:14.013Z,49.30
2017-06-27T13:42:40.421Z,50.30
2017-06-27T13:45:06.874Z,52.10
2017-06-27T13:47:33.267Z,52.10
2017-06-27T13:49:59.682Z,52.10
2017-06-27T13:52:26.102Z,50.50
2017-06-27T13:54:52.513Z,50.80
2017-06-27T13:57:18.899Z,52.20
2017-06-27T13:59:45.418Z,49.90
2017-06-27T14:02:12.609Z,50.20
2017-06-27T14:04:38.974Z,49.40
2017-06-27T14:07:05.482Z,49.50
2017-06-27T14:09:32.666Z,49.80
2017-06-27T14:11:59.116Z,49.90
2017-06-27T14:14:25.493Z,49.10
2017-06-27T14:16:51.926Z,49.30
2017-06-27T14:19:18.325Z,49.40
2017-06-27T14:21:44.771Z,48.50
2017-06-27T14:24:11.182Z,49.00
2017-06-27T14:26:37.622Z,49.60
2017-06-27T14:29:03.978Z,49.80
2017-06-27T14:31:30.357Z,49.30
2017-06-27T14:33:56.785Z,49.80
2017-06-27T14:36:23.222Z,49.80
2017-06-27T14:38:50.383Z,50.80
2017-06-27T14:41:16.790Z,50.80
2017-06-27T14:43:43.471Z,50.20
2017-06-27T14:46:09.888Z,51.30
2017-06-27T14:48:36.249Z,50.70
2017-06-27T14:51:02.710Z,49.70
2017-06-27T14:53:29.094Z,50.80
2017-06-27T14:55:55.471Z,50.00
2017-06-27T14:58:21.845Z,50.10
2017-06-27T15:00:48.263Z,50.20
2017-06-27T15:03:14.692Z,49.90
2017-06-27T15:05:41.074Z,48.50
2017-06-27T15:08:07.466Z,49.40
2017-06-27T15:10:35.134Z,49.70
2017-06-27T15:13:01.517Z,49.50
2017-06-27T15:15:28.644Z,50.10
2017-06-27T15:17:55.049Z,49.80
2017-06-27T15:20:21.424Z,50.80
2017-06-27T15:22:47.834Z,50.20
2017-06-27T15:25:14.253Z,50.40
2017-06-27T15:27:40.666Z,51.10
2017-06-27T15:30:07.060Z,51.00
2017-06-27T15:32:34.194Z,52.30
2017-06-27T15:35:00.633Z,52.20
2017-06-27T15:37:27.101Z,51.80
2017-06-27T15:39:53.467Z,51.40
2017-06-27T15:42:20.275Z,52.10
2017-06-27T15:44:46.738Z,52.40
2017-06-27T15:47:13.172Z,52.90
2017-06-27T15:49:39.553Z,52.20
2017-06-27T15:52:05.920Z,52.70
2017-06-27T15:54:32.298Z,52.50
2017-06-27T15:56:58.670Z,52.90
2017-06-27T15:59:25.058Z,53.50
2017-06-27T16:01:51.559Z,52.20
2017-06-27T16:04:21.767Z,54.10
2017-06-27T16:06:48.193Z,53.70
2017-06-27T16:09:14.563Z,53.70
2017-06-27T16:11:40.921Z,53.90
2017-06-27T16:14:07.309Z,53.90
2017-06-27T16:16:33.681Z,55.00
2017-06-27T16:19:01.496Z,55.30
2017-06-27T16:21:27.952Z,54.40
2017-06-27T16:23:55.272Z,53.70
2017-06-27T16:26:21.726Z,54.90
2017-06-27T16:28:48.846Z,54.00
2017-06-27T16:31:15.218Z,54.00
2017-06-27T16:33:41.617Z,54.70
2017-06-27T16:36:11.145Z,54.80
2017-06-27T16:38:37.575Z,54.60
2017-06-27T16:41:03.926Z,54.40
2017-06-27T16:43:30.594Z,53.80
2017-06-27T16:45:56.949Z,54.60
2017-06-27T16:48:24.055Z,54.50
2017-06-27T16:50:54.474Z,54.50
2017-06-27T16:53:20.937Z,54.80
2017-06-27T16:55:47.353Z,55.20
2017-06-27T16:58:13.793Z,55.40
2017-06-27T17:00:40.214Z,54.60
2017-06-27T17:03:06.613Z,55.60
2017-06-27T17:05:37.448Z,55.90
2017-06-27T17:08:03.866Z,56.10
2017-06-27T17:10:30.272Z,56.50
2017-06-27T17:12:56.682Z,57.10
2017-06-27T17:15:23.107Z,57.40
2017-06-27T17:17:49.479Z,56.80
2017-06-27T17:20:22.565Z,56.70
2017-06-27T17:22:48.966Z,57.10
2017-06-27T17:25:16.095Z,57.50
2017-06-27T17:27:42.451Z,57.40
2017-06-27T17:30:08.822Z,58.10
2017-06-27T17:32:35.210Z,58.30
2017-06-27T17:35:01.602Z,59.10
2017-06-27T17:37:27.981Z,59.50
2017-06-27T17:39:54.362Z,59.80
2017-06-27T17:42:20.750Z,60.50
2017-06-27T17:44:47.119Z,61.20
2017-06-27T17:47:13.469Z,61.40
2017-06-27T17:49:39.938Z,61.40
2017-06-27T17:52:06.322Z,62.70
2017-06-27T17:54:32.677Z,63.00
2017-06-27T17:56:59.127Z,62.20
2017-06-27T17:59:25.537Z,61.80
2017-06-27T18:01:52.625Z,63.70
2017-06-27T18:04:19.066Z,62.90
2017-06-27T18:06:45.418Z,64.00
2017-06-27T18:09:11.824Z,64.20
2017-06-27T18:11:38.931Z,64.00
2017-06-27T18:14:05.317Z,63.90
2017-06-27T18:16:31.782Z,63.70
2017-06-27T18:18:58.181Z,63.10
2017-06-27T18:21:25.337Z,63.20
2017-06-27T18:23:51.688Z,63.20
2017-06-27T18:26:18.214Z,63.20
2017-06-27T18:28:44.656Z,63.00
2017-06-27T18:31:11.037Z,62.70
2017-06-27T18:33:37.492Z,62.10
2017-06-27T18:36:03.865Z,63.60
2017-06-27T18:38:30.236Z,64.20
2017-06-27T18:40:56.652Z,65.40
2017-06-27T18:43:23.065Z,64.10
2017-06-27T18:45:49.445Z,63.70
2017-06-27T18:48:15.781Z,63.90
2017-06-27T18:50:42.233Z,63.30
2017-06-27T18:53:09.333Z,63.40
2017-06-27T18:55:35.678Z,62.80
2017-06-27T18:58:02.073Z,62.40
2017-06-27T19:00:28.454Z,63.00
2017-06-27T19:02:55.538Z,61.80
2017-06-27T19:05:21.933Z,61.70
2017-06-27T19:07:48.289Z,61.30
2017-06-27T19:10:15.683Z,60.60
2017-06-27T19:12:44.201Z,60.60
2017-06-27T19:15:10.597Z,61.40
2017-06-27T19:17:36.950Z,60.80
2017-06-27T19:20:03.353Z,61.40
2017-06-27T19:22:29.718Z,62.20
2017-06-27T19:24:56.101Z,61.60
2017-06-27T19:27:23.218Z,63.20
2017-06-27T19:29:49.602Z,62.80
2017-06-27T19:32:16.025Z,62.70
2017-06-27T19:34:42.386Z,62.50
2017-06-27T19:37:08.789Z,62.90
2017-06-27T19:39:35.334Z,62.50
2017-06-27T19:42:02.504Z,61.80
2017-06-27T19:44:28.941Z,61.60
2017-06-27T19:46:55.426Z,62.50
2017-06-27T19:49:24.193Z,62.30
2017-06-27T19:51:50.558Z,61.80
2017-06-27T19:54:16.998Z,61.40
2017-06-27T19:56:44.180Z,61.30
2017-06-27T19:59:10.652Z,61.30
2017-06-27T20:01:45.914Z,61.30
2017-06-27T20:04:12.329Z,61.80
2017-06-27T20:06:38.754Z,61.50
2017-06-27T20:09:05.133Z,63.20
2017-06-27T20:11:31.489Z,61.20
2017-06-27T20:13:57.838Z,61.70
2017-06-27T20:16:24.222Z,62.00
2017-06-27T20:18:51.343Z,62.40
2017-06-27T20:21:17.710Z,62.30
2017-06-27T20:23:44.093Z,62.10
2017-06-27T20:26:10.505Z,61.80
2017-06-27T20:28:36.947Z,61.40
2017-06-27T20:31:04.818Z,61.70
2017-06-27T20:33:31.615Z,61.40
2017-06-27T20:35:58.175Z,61.40
2017-06-27T20:38:24.711Z,62.20
2017-06-27T20:40:51.237Z,62.80
2017-06-27T20:43:19.381Z,62.80
2017-06-27T20:45:46.198Z,62.80
2017-06-27T20:48:12.790Z,62.80
2017-06-27T20:50:39.441Z,62.90
2017-06-27T20:53:05.931Z,62.90
2017-06-27T20:55:35.859Z,62.40
2017-06-27T20:58:03.380Z,62.60
2017-06-27T21:00:30.739Z,62.60
2017-06-27T21:02:59.182Z,62.80
2017-06-27T21:05:26.626Z,62.20
2017-06-27T21:07:54.108Z,62.20
2017-06-27T21:10:21.476Z,62.90
2017-06-27T21:12:48.734Z,62.20
2017-06-27T21:15:15.379Z,62.10
2017-06-27T21:17:41.920Z,61.90
2017-06-27T21:20:09.360Z,62.30
2017-06-27T21:22:35.947Z,62.70
2017-06-27T21:25:03.331Z,62.60
2017-06-27T21:27:29.979Z,62.70
2017-06-27T21:29:56.418Z,62.40
2017-06-27T21:32:22.850Z,64.70
2017-06-27T21:34:49.214Z,63.70
2017-06-27T21:37:15.662Z,63.60
2017-06-27T21:39:42.254Z,64.40
2017-06-27T21:42:08.704Z,64.40
2017-06-27T21:44:50.021Z,63.70
2017-06-27T21:47:16.437Z,63.70
2017-06-27T21:49:44.004Z,63.30
2017-06-27T21:52:10.419Z,63.30
2017-06-27T21:54:36.790Z,62.60
2017-06-27T21:57:03.288Z,63.80
2017-06-27T21:59:29.973Z,64.30
2017-06-27T22:01:56.362Z,65.40
2017-06-27T22:04:23.470Z,63.10
2017-06-27T22:06:49.872Z,62.90
2017-06-27T22:09:16.260Z,65.80
2017-06-27T22:11:42.646Z,65.00
2017-06-27T22:14:09.030Z,65.40
2017-06-27T22:16:35.437Z,64.80
2017-06-27T22:19:01.854Z,64.90
2017-06-27T22:21:28.215Z,65.20
2017-06-27T22:23:55.318Z,64.10
2017-06-27T22:26:21.682Z,64.10
2017-06-27T22:28:48.050Z,64.20
2017-06-27T22:31:14.405Z,64.30
2017-06-27T22:33:40.761Z,63.50
2017-06-27T22:36:07.177Z,63.30
2017-06-27T22:38:33.549Z,63.60
2017-06-27T22:40:59.893Z,63.80
2017-06-27T22:43:26.275Z,63.50
2017-06-27T22:45:53.373Z,64.40
2017-06-27T22:48:19.755Z,63.60
2017-06-27T22:51:01.509Z,63.60
2017-06-27T22:53:29.710Z,63.50
2017-06-27T22:55:56.133Z,63.30
2017-06-27T22:58:22.520Z,63.30
2017-06-27T23:00:48.862Z,63.30
2017-06-27T23:03:15.255Z,63.00
2017-06-27T23:05:42.142Z,63.30
2017-06-27T23:08:08.525Z,63.50
2017-06-27T23:10:34.882Z,63.40
2017-06-27T23:13:01.994Z,64.20
2017-06-27T23:15:28.408Z,63.50
2017-06-27T23:17:54.817Z,63.30
2017-06-27T23:20:21.223Z,63.70
2017-06-27T23:22:47.673Z,64.10
2017-06-27T23:25:14.058Z,64.40
2017-06-27T23:27:41.234Z,64.30
2017-06-27T23:30:07.566Z,64.00
2017-06-27T23:32:34.720Z,64.10
2017-06-27T23:35:01.097Z,64.10
2017-06-27T23:37:27.679Z,64.40
2017-06-27T23:39:54.013Z,65.20
2017-06-27T23:42:20.475Z,65.40
2017-06-27T23:44:47.597Z,65.60
2017-06-27T23:47:13.974Z,65.60
2017-06-27T23:49:40.332Z,66.30
2017-06-27T23:52:07.495Z,66.00
2017-06-27T23:54:33.846Z,65.90
2017-06-27T23:57:00.201Z,67.00
2017-06-27T23:59:26.574Z,66.50
